sensor_id;sensor_type;location;lat;lon;timestamp;P1;durP1;ratioP1;P2;durP2;ratioP2
151;SDS011;68;48.792;9.164;2023-07-22T00:00:54;28.63;;;16.97;;
151;SDS011;68;48.792;9.164;2023-07-22T00:03:21;29.73;;;18.80;;
151;SDS011;68;48.792;9.164;2023-07-22T00:05:48;33.00;;;18.77;;
151;SDS011;68;48.792;9.164;2023-07-22T00:08:27;29.60;;;18.93;;
151;SDS011;68;48.792;9.164;2023-07-22T00:10:54;25.10;;;13.40;;
151;SDS011;68;48.792;9.164;2023-07-22T00:13:21;30.73;;;20.60;;
151;SDS011;68;48.792;9.164;2023-07-22T00:15:48;27.73;;;16.87;;
151;SDS011;68;48.792;9.164;2023-07-22T00:18:17;28.00;;;17.10;;
151;SDS011;68;48.792;9.164;2023-07-22T00:20:43;26.80;;;18.10;;
151;SDS011;68;48.792;9.164;2023-07-22T00:23:10;28.37;;;19.83;;
151;SDS011;68;48.792;9.164;2023-07-22T00:25:37;31.10;;;20.33;;
151;SDS011;68;48.792;9.164;2023-07-22T00:28:04;26.53;;;18.13;;
151;SDS011;68;48.792;9.164;2023-07-22T00:30:30;27.40;;;16.00;;
151;SDS011;68;48.792;9.164;2023-07-22T00:32:57;31.40;;;17.40;;
151;SDS011;68;48.792;9.164;2023-07-22T00:35:25;28.40;;;19.17;;
151;SDS011;68;48.792;9.164;2023-07-22T00:37:52;27.47;;;19.50;;
151;SDS011;68;48.792;9.164;2023-07-22T00:40:19;29.23;;;21.77;;
151;SDS011;68;48.792;9.164;2023-07-22T00:42:47;28.67;;;19.53;;
151;SDS011;68;48.792;9.164;2023-07-22T00:45:14;25.47;;;16.73;;
151;SDS011;68;48.792;9.164;2023-07-22T00:47:41;25.23;;;16.60;;
151;SDS011;68;48.792;9.164;2023-07-22T00:50:09;29.53;;;20.13;;
151;SDS011;68;48.792;9.164;2023-07-22T00:52:37;33.20;;;19.63;;
151;SDS011;68;48.792;9.164;2023-07-22T00:55:04;29.17;;;17.00;;
151;SDS011;68;48.792;9.164;2023-07-22T00:57:31;29.80;;;20.70;;
151;SDS011;68;48.792;9.164;2023-07-22T00:59:58;33.07;;;22.77;;
151;SDS011;68;48.792;9.164;2023-07-22T01:02:25;27.50;;;19.90;;
151;SDS011;68;48.792;9.164;2023-07-22T01:04:52;27.30;;;19.80;;
151;SDS011;68;48.792;9.164;2023-07-22T01:07:19;27.30;;;19.07;;
151;SDS011;68;48.792;9.164;2023-07-22T01:09:47;30.70;;;21.50;;
151;SDS011;68;48.792;9.164;2023-07-22T01:12:14;29.60;;;20.87;;
151;SDS011;68;48.792;9.164;2023-07-22T01:14:41;29.50;;;21.43;;
151;SDS011;68;48.792;9.164;2023-07-22T01:17:09;27.47;;;16.93;;
151;SDS011;68;48.792;9.164;2023-07-22T01:19:38;27.23;;;18.53;;
151;SDS011;68;48.792;9.164;2023-07-22T01:22:05;28.97;;;18.70;;
151;SDS011;68;48.792;9.164;2023-07-22T01:24:34;27.87;;;18.67;;
151;SDS011;68;48.792;9.164;2023-07-22T01:27:01;27.15;;;20.13;;
151;SDS011;68;48.792;9.164;2023-07-22T01:29:33;28.90;;;19.80;;
151;SDS011;68;48.792;9.164;2023-07-22T01:32:00;35.87;;;21.77;;
151;SDS011;68;48.792;9.164;2023-07-22T01:34:26;31.93;;;24.23;;
151;SDS011;68;48.792;9.164;2023-07-22T01:36:55;31.47;;;21.73;;
151;SDS011;68;48.792;9.164;2023-07-22T01:39:21;31.65;;;20.90;;
151;SDS011;68;48.792;9.164;2023-07-22T01:41:49;37.53;;;22.05;;
151;SDS011;68;48.792;9.164;2023-07-22T01:44:16;30.60;;;21.10;;
151;SDS011;68;48.792;9.164;2023-07-22T01:46:43;28.63;;;20.57;;
151;SDS011;68;48.792;9.164;2023-07-22T01:49:10;30.17;;;22.03;;
151;SDS011;68;48.792;9.164;2023-07-22T01:51:38;30.03;;;22.33;;
151;SDS011;68;48.792;9.164;2023-07-22T01:54:05;30.70;;;22.33;;
151;SDS011;68;48.792;9.164;2023-07-22T01:56:32;30.50;;;21.07;;
151;SDS011;68;48.792;9.164;2023-07-22T01:59:00;29.20;;;20.40;;
151;SDS011;68;48.792;9.164;2023-07-22T02:01:27;33.37;;;23.97;;
151;SDS011;68;48.792;9.164;2023-07-22T02:03:54;31.90;;;21.07;;
151;SDS011;68;48.792;9.164;2023-07-22T02:06:21;31.65;;;19.58;;
151;SDS011;68;48.792;9.164;2023-07-22T02:08:48;31.17;;;21.00;;
151;SDS011;68;48.792;9.164;2023-07-22T02:11:15;28.23;;;19.67;;
151;SDS011;68;48.792;9.164;2023-07-22T02:13:43;34.17;;;24.83;;
151;SDS011;68;48.792;9.164;2023-07-22T02:16:12;32.60;;;21.67;;
151;SDS011;68;48.792;9.164;2023-07-22T02:18:38;30.38;;;19.52;;
151;SDS011;68;48.792;9.164;2023-07-22T02:21:05;30.40;;;20.93;;
151;SDS011;68;48.792;9.164;2023-07-22T02:23:32;29.52;;;20.17;;
151;SDS011;68;48.792;9.164;2023-07-22T02:25:59;26.67;;;16.30;;
151;SDS011;68;48.792;9.164;2023-07-22T02:28:27;33.97;;;20.97;;
151;SDS011;68;48.792;9.164;2023-07-22T02:30:54;31.37;;;19.80;;
151;SDS011;68;48.792;9.164;2023-07-22T02:33:22;35.47;;;22.07;;
151;SDS011;68;48.792;9.164;2023-07-22T02:35:49;29.35;;;18.80;;
151;SDS011;68;48.792;9.164;2023-07-22T02:38:15;33.33;;;25.17;;
151;SDS011;68;48.792;9.164;2023-07-22T02:40:42;35.27;;;21.70;;
151;SDS011;68;48.792;9.164;2023-07-22T02:43:09;29.77;;;20.23;;
151;SDS011;68;48.792;9.164;2023-07-22T02:45:36;31.33;;;22.47;;
151;SDS011;68;48.792;9.164;2023-07-22T02:48:03;30.30;;;21.83;;
151;SDS011;68;48.792;9.164;2023-07-22T02:50:32;33.30;;;23.45;;
151;SDS011;68;48.792;9.164;2023-07-22T02:52:58;29.50;;;22.60;;
151;SDS011;68;48.792;9.164;2023-07-22T02:55:25;29.50;;;21.65;;
151;SDS011;68;48.792;9.164;2023-07-22T02:57:52;28.10;;;18.67;;
151;SDS011;68;48.792;9.164;2023-07-22T03:00:19;32.55;;;24.00;;
151;SDS011;68;48.792;9.164;2023-07-22T03:02:48;31.37;;;23.17;;
151;SDS011;68;48.792;9.164;2023-07-22T03:05:15;31.37;;;22.93;;
151;SDS011;68;48.792;9.164;2023-07-22T03:07:43;28.10;;;19.20;;
151;SDS011;68;48.792;9.164;2023-07-22T03:10:10;31.73;;;23.98;;
151;SDS011;68;48.792;9.164;2023-07-22T03:12:37;31.50;;;22.25;;
151;SDS011;68;48.792;9.164;2023-07-22T03:15:04;30.73;;;22.67;;
151;SDS011;68;48.792;9.164;2023-07-22T03:17:33;30.40;;;22.27;;
151;SDS011;68;48.792;9.164;2023-07-22T03:20:00;30.55;;;21.20;;
151;SDS011;68;48.792;9.164;2023-07-22T03:22:29;28.83;;;21.67;;
151;SDS011;68;48.792;9.164;2023-07-22T03:24:57;32.80;;;21.80;;
151;SDS011;68;48.792;9.164;2023-07-22T03:27:24;26.10;;;18.23;;
151;SDS011;68;48.792;9.164;2023-07-22T03:29:52;29.70;;;20.52;;
151;SDS011;68;48.792;9.164;2023-07-22T03:32:19;31.23;;;22.13;;
151;SDS011;68;48.792;9.164;2023-07-22T03:34:45;34.23;;;20.47;;
151;SDS011;68;48.792;9.164;2023-07-22T03:37:12;33.50;;;20.20;;
151;SDS011;68;48.792;9.164;2023-07-22T03:39:39;30.07;;;21.97;;
151;SDS011;68;48.792;9.164;2023-07-22T03:42:08;34.83;;;26.27;;
151;SDS011;68;48.792;9.164;2023-07-22T03:44:34;31.65;;;22.70;;
151;SDS011;68;48.792;9.164;2023-07-22T03:47:02;29.58;;;20.02;;
151;SDS011;68;48.792;9.164;2023-07-22T03:49:29;31.20;;;21.27;;
151;SDS011;68;48.792;9.164;2023-07-22T03:51:55;31.35;;;22.90;;
151;SDS011;68;48.792;9.164;2023-07-22T03:54:22;29.30;;;19.92;;
151;SDS011;68;48.792;9.164;2023-07-22T03:56:49;32.95;;;22.08;;
151;SDS011;68;48.792;9.164;2023-07-22T03:59:17;39.15;;;24.95;;
151;SDS011;68;48.792;9.164;2023-07-22T04:01:43;31.17;;;21.98;;
151;SDS011;68;48.792;9.164;2023-07-22T04:04:11;29.83;;;18.48;;
151;SDS011;68;48.792;9.164;2023-07-22T04:06:38;32.42;;;23.02;;
151;SDS011;68;48.792;9.164;2023-07-22T04:09:05;31.70;;;21.45;;
151;SDS011;68;48.792;9.164;2023-07-22T04:11:32;30.43;;;24.70;;
151;SDS011;68;48.792;9.164;2023-07-22T04:13:59;35.28;;;24.55;;
151;SDS011;68;48.792;9.164;2023-07-22T04:16:27;30.13;;;21.00;;
151;SDS011;68;48.792;9.164;2023-07-22T04:18:54;30.77;;;21.48;;
151;SDS011;68;48.792;9.164;2023-07-22T04:21:21;32.17;;;21.67;;
151;SDS011;68;48.792;9.164;2023-07-22T04:23:47;30.07;;;20.17;;
151;SDS011;68;48.792;9.164;2023-07-22T04:26:14;29.60;;;21.17;;
151;SDS011;68;48.792;9.164;2023-07-22T04:28:42;27.80;;;19.57;;
151;SDS011;68;48.792;9.164;2023-07-22T04:31:09;28.77;;;21.00;;
151;SDS011;68;48.792;9.164;2023-07-22T04:33:37;32.17;;;21.07;;
151;SDS011;68;48.792;9.164;2023-07-22T04:36:04;30.77;;;21.30;;
151;SDS011;68;48.792;9.164;2023-07-22T04:38:31;28.17;;;14.00;;
151;SDS011;68;48.792;9.164;2023-07-22T04:40:58;31.57;;;22.17;;
151;SDS011;68;48.792;9.164;2023-07-22T04:43:27;31.50;;;20.83;;
151;SDS011;68;48.792;9.164;2023-07-22T04:45:53;29.90;;;18.77;;
151;SDS011;68;48.792;9.164;2023-07-22T04:48:21;23.93;;;15.57;;
151;SDS011;68;48.792;9.164;2023-07-22T04:50:50;29.17;;;19.77;;
151;SDS011;68;48.792;9.164;2023-07-22T04:53:17;35.25;;;16.17;;
151;SDS011;68;48.792;9.164;2023-07-22T04:55:44;32.50;;;22.37;;
151;SDS011;68;48.792;9.164;2023-07-22T04:58:11;26.97;;;15.47;;
151;SDS011;68;48.792;9.164;2023-07-22T05:00:38;34.37;;;16.60;;
151;SDS011;68;48.792;9.164;2023-07-22T05:03:04;24.97;;;14.27;;
151;SDS011;68;48.792;9.164;2023-07-22T05:05:32;24.85;;;14.68;;
151;SDS011;68;48.792;9.164;2023-07-22T05:08:02;28.27;;;18.00;;
151;SDS011;68;48.792;9.164;2023-07-22T05:10:29;28.00;;;17.50;;
151;SDS011;68;48.792;9.164;2023-07-22T05:12:55;28.50;;;15.80;;
151;SDS011;68;48.792;9.164;2023-07-22T05:15:23;26.55;;;15.07;;
151;SDS011;68;48.792;9.164;2023-07-22T05:17:50;28.67;;;15.33;;
151;SDS011;68;48.792;9.164;2023-07-22T05:20:17;28.47;;;15.03;;
151;SDS011;68;48.792;9.164;2023-07-22T05:22:43;30.40;;;18.00;;
151;SDS011;68;48.792;9.164;2023-07-22T05:25:12;24.57;;;14.27;;
151;SDS011;68;48.792;9.164;2023-07-22T05:27:39;29.27;;;16.17;;
151;SDS011;68;48.792;9.164;2023-07-22T05:30:06;26.13;;;12.90;;
151;SDS011;68;48.792;9.164;2023-07-22T05:32:35;24.30;;;12.17;;
151;SDS011;68;48.792;9.164;2023-07-22T05:35:02;26.67;;;16.67;;
151;SDS011;68;48.792;9.164;2023-07-22T05:37:30;28.57;;;15.37;;
151;SDS011;68;48.792;9.164;2023-07-22T05:39:57;26.73;;;16.60;;
151;SDS011;68;48.792;9.164;2023-07-22T05:42:25;23.23;;;12.50;;
151;SDS011;68;48.792;9.164;2023-07-22T05:44:53;32.07;;;17.13;;
151;SDS011;68;48.792;9.164;2023-07-22T05:47:20;26.00;;;14.00;;
151;SDS011;68;48.792;9.164;2023-07-22T05:49:47;25.97;;;13.67;;
151;SDS011;68;48.792;9.164;2023-07-22T05:52:14;28.20;;;17.27;;
151;SDS011;68;48.792;9.164;2023-07-22T05:54:41;23.10;;;12.27;;
151;SDS011;68;48.792;9.164;2023-07-22T05:57:07;20.90;;;10.57;;
151;SDS011;68;48.792;9.164;2023-07-22T05:59:35;23.37;;;12.00;;
151;SDS011;68;48.792;9.164;2023-07-22T06:02:03;24.67;;;14.63;;
151;SDS011;68;48.792;9.164;2023-07-22T06:04:30;23.50;;;12.10;;
151;SDS011;68;48.792;9.164;2023-07-22T06:06:57;27.07;;;16.10;;
151;SDS011;68;48.792;9.164;2023-07-22T06:09:23;24.63;;;14.10;;
151;SDS011;68;48.792;9.164;2023-07-22T06:11:50;27.17;;;15.33;;
151;SDS011;68;48.792;9.164;2023-07-22T06:14:17;21.87;;;9.80;;
151;SDS011;68;48.792;9.164;2023-07-22T06:16:45;25.07;;;15.67;;
151;SDS011;68;48.792;9.164;2023-07-22T06:19:12;26.50;;;15.43;;
151;SDS011;68;48.792;9.164;2023-07-22T06:21:39;28.43;;;15.30;;
151;SDS011;68;48.792;9.164;2023-07-22T06:24:05;24.63;;;13.80;;
151;SDS011;68;48.792;9.164;2023-07-22T06:26:32;23.47;;;13.10;;
151;SDS011;68;48.792;9.164;2023-07-22T06:28:59;26.63;;;12.67;;
151;SDS011;68;48.792;9.164;2023-07-22T06:31:26;25.67;;;15.50;;
151;SDS011;68;48.792;9.164;2023-07-22T06:33:56;24.60;;;12.40;;
151;SDS011;68;48.792;9.164;2023-07-22T06:36:24;25.30;;;13.53;;
151;SDS011;68;48.792;9.164;2023-07-22T06:38:51;24.10;;;12.60;;
151;SDS011;68;48.792;9.164;2023-07-22T06:41:19;28.07;;;15.13;;
151;SDS011;68;48.792;9.164;2023-07-22T06:43:48;26.73;;;12.50;;
151;SDS011;68;48.792;9.164;2023-07-22T06:46:15;27.43;;;15.50;;
151;SDS011;68;48.792;9.164;2023-07-22T06:48:42;27.57;;;13.07;;
151;SDS011;68;48.792;9.164;2023-07-22T06:51:10;26.37;;;14.67;;
151;SDS011;68;48.792;9.164;2023-07-22T06:53:37;30.50;;;16.50;;
151;SDS011;68;48.792;9.164;2023-07-22T06:56:03;24.43;;;12.70;;
151;SDS011;68;48.792;9.164;2023-07-22T06:58:30;25.83;;;14.87;;
151;SDS011;68;48.792;9.164;2023-07-22T07:00:57;24.60;;;14.03;;
151;SDS011;68;48.792;9.164;2023-07-22T07:03:24;33.90;;;11.53;;
151;SDS011;68;48.792;9.164;2023-07-22T07:05:51;22.77;;;10.60;;
151;SDS011;68;48.792;9.164;2023-07-22T07:08:20;26.87;;;14.27;;
151;SDS011;68;48.792;9.164;2023-07-22T07:10:47;25.17;;;12.57;;
151;SDS011;68;48.792;9.164;2023-07-22T07:13:14;23.27;;;12.67;;
151;SDS011;68;48.792;9.164;2023-07-22T07:15:41;28.93;;;13.17;;
151;SDS011;68;48.792;9.164;2023-07-22T07:18:12;23.97;;;12.10;;
151;SDS011;68;48.792;9.164;2023-07-22T07:20:38;22.67;;;10.30;;
151;SDS011;68;48.792;9.164;2023-07-22T07:23:05;24.90;;;10.13;;
151;SDS011;68;48.792;9.164;2023-07-22T07:25:33;22.97;;;9.90;;
151;SDS011;68;48.792;9.164;2023-07-22T07:28:00;21.10;;;10.77;;
151;SDS011;68;48.792;9.164;2023-07-22T07:30:27;24.23;;;11.20;;
151;SDS011;68;48.792;9.164;2023-07-22T07:32:54;22.60;;;9.30;;
151;SDS011;68;48.792;9.164;2023-07-22T07:35:21;21.13;;;8.40;;
151;SDS011;68;48.792;9.164;2023-07-22T07:37:47;27.60;;;9.07;;
151;SDS011;68;48.792;9.164;2023-07-22T07:40:14;22.80;;;9.20;;
151;SDS011;68;48.792;9.164;2023-07-22T07:42:42;24.90;;;8.57;;
151;SDS011;68;48.792;9.164;2023-07-22T07:45:09;19.87;;;7.77;;
151;SDS011;68;48.792;9.164;2023-07-22T07:47:36;22.00;;;9.43;;
151;SDS011;68;48.792;9.164;2023-07-22T07:50:03;23.07;;;9.87;;
151;SDS011;68;48.792;9.164;2023-07-22T07:52:30;19.57;;;7.73;;
151;SDS011;68;48.792;9.164;2023-07-22T07:54:57;21.60;;;8.30;;
151;SDS011;68;48.792;9.164;2023-07-22T07:57:24;21.10;;;8.00;;
151;SDS011;68;48.792;9.164;2023-07-22T07:59:52;22.27;;;9.03;;
151;SDS011;68;48.792;9.164;2023-07-22T08:02:19;18.60;;;5.80;;
151;SDS011;68;48.792;9.164;2023-07-22T08:04:46;19.10;;;6.67;;
151;SDS011;68;48.792;9.164;2023-07-22T08:07:15;20.87;;;7.63;;
151;SDS011;68;48.792;9.164;2023-07-22T08:09:42;18.40;;;6.53;;
151;SDS011;68;48.792;9.164;2023-07-22T08:12:13;19.27;;;5.67;;
151;SDS011;68;48.792;9.164;2023-07-22T08:14:39;19.20;;;5.90;;
151;SDS011;68;48.792;9.164;2023-07-22T08:17:08;20.43;;;5.63;;
151;SDS011;68;48.792;9.164;2023-07-22T08:19:35;19.77;;;7.43;;
151;SDS011;68;48.792;9.164;2023-07-22T08:22:01;20.50;;;6.80;;
151;SDS011;68;48.792;9.164;2023-07-22T08:24:28;18.33;;;5.33;;
151;SDS011;68;48.792;9.164;2023-07-22T08:26:55;19.30;;;6.10;;
151;SDS011;68;48.792;9.164;2023-07-22T08:29:22;25.77;;;5.10;;
151;SDS011;68;48.792;9.164;2023-07-22T08:31:49;19.40;;;6.13;;
151;SDS011;68;48.792;9.164;2023-07-22T08:34:17;18.63;;;5.77;;
151;SDS011;68;48.792;9.164;2023-07-22T08:36:44;21.10;;;5.80;;
151;SDS011;68;48.792;9.164;2023-07-22T08:39:11;21.70;;;5.60;;
151;SDS011;68;48.792;9.164;2023-07-22T08:41:37;18.90;;;4.80;;
151;SDS011;68;48.792;9.164;2023-07-22T08:44:05;17.87;;;4.70;;
151;SDS011;68;48.792;9.164;2023-07-22T08:46:34;20.50;;;4.97;;
151;SDS011;68;48.792;9.164;2023-07-22T08:49:03;19.27;;;4.70;;
151;SDS011;68;48.792;9.164;2023-07-22T08:51:34;28.83;;;5.20;;
151;SDS011;68;48.792;9.164;2023-07-22T08:54:02;18.73;;;4.67;;
151;SDS011;68;48.792;9.164;2023-07-22T08:56:29;19.40;;;4.90;;
151;SDS011;68;48.792;9.164;2023-07-22T08:58:57;19.53;;;4.60;;
151;SDS011;68;48.792;9.164;2023-07-22T09:01:25;17.60;;;4.03;;
151;SDS011;68;48.792;9.164;2023-07-22T09:03:52;18.03;;;3.70;;
151;SDS011;68;48.792;9.164;2023-07-22T09:06:22;20.60;;;4.60;;
151;SDS011;68;48.792;9.164;2023-07-22T09:08:50;18.90;;;4.60;;
151;SDS011;68;48.792;9.164;2023-07-22T09:11:17;17.90;;;4.37;;
151;SDS011;68;48.792;9.164;2023-07-22T09:13:45;18.40;;;4.70;;
151;SDS011;68;48.792;9.164;2023-07-22T09:16:13;20.73;;;4.77;;
151;SDS011;68;48.792;9.164;2023-07-22T09:18:40;29.13;;;5.90;;
151;SDS011;68;48.792;9.164;2023-07-22T09:21:07;17.93;;;4.70;;
151;SDS011;68;48.792;9.164;2023-07-22T09:23:35;19.83;;;4.30;;
151;SDS011;68;48.792;9.164;2023-07-22T09:26:09;18.90;;;5.20;;
151;SDS011;68;48.792;9.164;2023-07-22T09:28:47;19.90;;;5.53;;
151;SDS011;68;48.792;9.164;2023-07-22T09:31:15;17.67;;;4.73;;
151;SDS011;68;48.792;9.164;2023-07-22T09:33:42;20.03;;;4.60;;
151;SDS011;68;48.792;9.164;2023-07-22T09:36:09;22.83;;;5.33;;
151;SDS011;68;48.792;9.164;2023-07-22T09:38:37;20.37;;;6.00;;
151;SDS011;68;48.792;9.164;2023-07-22T09:41:03;18.47;;;5.10;;
151;SDS011;68;48.792;9.164;2023-07-22T09:43:35;19.20;;;4.30;;
151;SDS011;68;48.792;9.164;2023-07-22T09:46:06;19.97;;;4.80;;
151;SDS011;68;48.792;9.164;2023-07-22T09:48:40;18.43;;;4.77;;
151;SDS011;68;48.792;9.164;2023-07-22T09:51:11;22.90;;;4.53;;
151;SDS011;68;48.792;9.164;2023-07-22T09:53:44;18.40;;;3.93;;
151;SDS011;68;48.792;9.164;2023-07-22T09:56:11;18.93;;;4.20;;
151;SDS011;68;48.792;9.164;2023-07-22T09:58:39;19.10;;;4.60;;
151;SDS011;68;48.792;9.164;2023-07-22T10:01:07;19.20;;;4.23;;
151;SDS011;68;48.792;9.164;2023-07-22T10:03:34;18.03;;;4.50;;
151;SDS011;68;48.792;9.164;2023-07-22T10:06:04;17.63;;;4.33;;
151;SDS011;68;48.792;9.164;2023-07-22T10:08:33;18.63;;;3.90;;
151;SDS011;68;48.792;9.164;2023-07-22T10:11:01;17.30;;;3.70;;
151;SDS011;68;48.792;9.164;2023-07-22T10:13:31;18.87;;;4.17;;
151;SDS011;68;48.792;9.164;2023-07-22T10:15:59;20.00;;;5.63;;
151;SDS011;68;48.792;9.164;2023-07-22T10:18:27;18.80;;;4.83;;
151;SDS011;68;48.792;9.164;2023-07-22T10:20:55;19.10;;;3.87;;
151;SDS011;68;48.792;9.164;2023-07-22T10:23:23;21.00;;;4.17;;
151;SDS011;68;48.792;9.164;2023-07-22T10:25:51;18.47;;;4.00;;
151;SDS011;68;48.792;9.164;2023-07-22T10:28:19;19.30;;;3.90;;
151;SDS011;68;48.792;9.164;2023-07-22T10:30:48;18.40;;;4.17;;
151;SDS011;68;48.792;9.164;2023-07-22T10:33:16;18.37;;;4.13;;
151;SDS011;68;48.792;9.164;2023-07-22T10:35:43;17.50;;;3.80;;
151;SDS011;68;48.792;9.164;2023-07-22T10:38:27;20.73;;;4.23;;
151;SDS011;68;48.792;9.164;2023-07-22T10:40:54;17.87;;;3.40;;
151;SDS011;68;48.792;9.164;2023-07-22T10:43:23;19.40;;;4.23;;
151;SDS011;68;48.792;9.164;2023-07-22T10:45:52;18.37;;;4.03;;
151;SDS011;68;48.792;9.164;2023-07-22T10:48:22;20.03;;;4.03;;
151;SDS011;68;48.792;9.164;2023-07-22T10:50:52;17.60;;;3.33;;
151;SDS011;68;48.792;9.164;2023-07-22T10:53:20;17.80;;;3.70;;
151;SDS011;68;48.792;9.164;2023-07-22T10:56:03;18.90;;;4.07;;
151;SDS011;68;48.792;9.164;2023-07-22T10:58:31;19.23;;;4.00;;
151;SDS011;68;48.792;9.164;2023-07-22T11:04:06;18.33;;;3.47;;
151;SDS011;68;48.792;9.164;2023-07-22T11:06:36;19.10;;;4.17;;
151;SDS011;68;48.792;9.164;2023-07-22T11:09:04;20.40;;;4.40;;
151;SDS011;68;48.792;9.164;2023-07-22T11:11:37;19.03;;;4.37;;
151;SDS011;68;48.792;9.164;2023-07-22T11:14:12;19.23;;;4.30;;
151;SDS011;68;48.792;9.164;2023-07-22T11:16:41;17.63;;;3.40;;
151;SDS011;68;48.792;9.164;2023-07-22T11:19:09;18.60;;;4.10;;
151;SDS011;68;48.792;9.164;2023-07-22T11:21:36;17.97;;;3.80;;
151;SDS011;68;48.792;9.164;2023-07-22T11:24:03;19.03;;;4.53;;
151;SDS011;68;48.792;9.164;2023-07-22T11:26:30;17.90;;;3.70;;
151;SDS011;68;48.792;9.164;2023-07-22T11:28:57;18.07;;;3.63;;
151;SDS011;68;48.792;9.164;2023-07-22T11:31:30;18.40;;;4.10;;
151;SDS011;68;48.792;9.164;2023-07-22T11:33:57;19.73;;;4.10;;
151;SDS011;68;48.792;9.164;2023-07-22T11:36:25;17.90;;;4.10;;
151;SDS011;68;48.792;9.164;2023-07-22T11:38:52;18.30;;;4.20;;
151;SDS011;68;48.792;9.164;2023-07-22T11:41:19;22.83;;;4.07;;
151;SDS011;68;48.792;9.164;2023-07-22T11:43:46;18.80;;;3.90;;
151;SDS011;68;48.792;9.164;2023-07-22T11:46:13;17.90;;;3.73;;
151;SDS011;68;48.792;9.164;2023-07-22T11:48:48;18.50;;;3.93;;
151;SDS011;68;48.792;9.164;2023-07-22T11:51:16;18.20;;;4.23;;
151;SDS011;68;48.792;9.164;2023-07-22T11:53:47;18.87;;;4.00;;
151;SDS011;68;48.792;9.164;2023-07-22T11:56:17;19.87;;;3.93;;
151;SDS011;68;48.792;9.164;2023-07-22T11:58:48;18.03;;;3.83;;
151;SDS011;68;48.792;9.164;2023-07-22T12:01:16;19.77;;;4.37;;
151;SDS011;68;48.792;9.164;2023-07-22T12:03:42;19.00;;;3.90;;
151;SDS011;68;48.792;9.164;2023-07-22T12:06:09;17.80;;;3.70;;
151;SDS011;68;48.792;9.164;2023-07-22T12:08:36;19.20;;;4.13;;
151;SDS011;68;48.792;9.164;2023-07-22T12:11:10;17.80;;;3.70;;
151;SDS011;68;48.792;9.164;2023-07-22T12:13:42;18.10;;;3.50;;
151;SDS011;68;48.792;9.164;2023-07-22T12:16:11;19.20;;;3.90;;
151;SDS011;68;48.792;9.164;2023-07-22T12:18:41;19.17;;;3.70;;
151;SDS011;68;48.792;9.164;2023-07-22T12:21:09;19.67;;;4.00;;
151;SDS011;68;48.792;9.164;2023-07-22T12:23:36;18.57;;;3.77;;
151;SDS011;68;48.792;9.164;2023-07-22T12:26:03;17.57;;;3.43;;
151;SDS011;68;48.792;9.164;2023-07-22T12:28:32;19.23;;;3.90;;
151;SDS011;68;48.792;9.164;2023-07-22T12:30:59;19.10;;;3.57;;
151;SDS011;68;48.792;9.164;2023-07-22T12:33:26;19.47;;;3.90;;
151;SDS011;68;48.792;9.164;2023-07-22T12:35:53;18.40;;;3.60;;
151;SDS011;68;48.792;9.164;2023-07-22T12:38:20;20.80;;;4.00;;
151;SDS011;68;48.792;9.164;2023-07-22T12:40:47;20.10;;;3.87;;
151;SDS011;68;48.792;9.164;2023-07-22T12:43:14;18.10;;;3.73;;
151;SDS011;68;48.792;9.164;2023-07-22T12:45:42;19.63;;;4.20;;
151;SDS011;68;48.792;9.164;2023-07-22T12:48:09;19.50;;;3.73;;
151;SDS011;68;48.792;9.164;2023-07-22T12:50:36;20.17;;;3.90;;
151;SDS011;68;48.792;9.164;2023-07-22T12:53:03;19.40;;;4.17;;
151;SDS011;68;48.792;9.164;2023-07-22T12:55:29;22.00;;;4.20;;
151;SDS011;68;48.792;9.164;2023-07-22T12:57:56;19.33;;;4.40;;
151;SDS011;68;48.792;9.164;2023-07-22T13:00:23;19.00;;;4.07;;
151;SDS011;68;48.792;9.164;2023-07-22T13:02:51;19.87;;;3.93;;
151;SDS011;68;48.792;9.164;2023-07-22T13:05:18;20.17;;;4.33;;
151;SDS011;68;48.792;9.164;2023-07-22T13:07:45;21.10;;;4.00;;
151;SDS011;68;48.792;9.164;2023-07-22T13:10:12;19.97;;;4.23;;
151;SDS011;68;48.792;9.164;2023-07-22T13:12:41;21.70;;;4.70;;
151;SDS011;68;48.792;9.164;2023-07-22T13:15:09;19.00;;;4.20;;
151;SDS011;68;48.792;9.164;2023-07-22T13:17:36;21.20;;;4.10;;
151;SDS011;68;48.792;9.164;2023-07-22T13:20:04;20.10;;;4.67;;
151;SDS011;68;48.792;9.164;2023-07-22T13:22:34;18.80;;;4.30;;
151;SDS011;68;48.792;9.164;2023-07-22T13:25:01;18.70;;;4.00;;
151;SDS011;68;48.792;9.164;2023-07-22T13:27:28;20.20;;;4.43;;
151;SDS011;68;48.792;9.164;2023-07-22T13:29:54;18.90;;;4.30;;
151;SDS011;68;48.792;9.164;2023-07-22T13:32:22;19.30;;;4.10;;
151;SDS011;68;48.792;9.164;2023-07-22T13:34:49;19.13;;;4.30;;
151;SDS011;68;48.792;9.164;2023-07-22T13:37:17;19.40;;;4.43;;
151;SDS011;68;48.792;9.164;2023-07-22T13:39:44;20.07;;;4.07;;
151;SDS011;68;48.792;9.164;2023-07-22T13:42:11;22.80;;;4.80;;
151;SDS011;68;48.792;9.164;2023-07-22T13:44:38;19.80;;;4.40;;
151;SDS011;68;48.792;9.164;2023-07-22T13:47:04;20.30;;;4.77;;
151;SDS011;68;48.792;9.164;2023-07-22T13:49:31;20.20;;;4.70;;
151;SDS011;68;48.792;9.164;2023-07-22T13:51:58;18.93;;;4.27;;
151;SDS011;68;48.792;9.164;2023-07-22T13:54:26;19.87;;;4.87;;
151;SDS011;68;48.792;9.164;2023-07-22T13:56:52;19.40;;;4.40;;
151;SDS011;68;48.792;9.164;2023-07-22T13:59:19;21.00;;;5.20;;
151;SDS011;68;48.792;9.164;2023-07-22T14:01:46;20.30;;;4.73;;
151;SDS011;68;48.792;9.164;2023-07-22T14:04:13;21.17;;;4.90;;
151;SDS011;68;48.792;9.164;2023-07-22T14:06:40;19.73;;;4.80;;
151;SDS011;68;48.792;9.164;2023-07-22T14:09:07;20.77;;;5.07;;
151;SDS011;68;48.792;9.164;2023-07-22T14:11:35;20.53;;;5.37;;
151;SDS011;68;48.792;9.164;2023-07-22T14:14:02;22.70;;;4.60;;
151;SDS011;68;48.792;9.164;2023-07-22T14:16:28;20.57;;;4.70;;
151;SDS011;68;48.792;9.164;2023-07-22T14:18:55;19.53;;;4.60;;
151;SDS011;68;48.792;9.164;2023-07-22T14:21:22;19.80;;;4.40;;
151;SDS011;68;48.792;9.164;2023-07-22T14:23:48;23.93;;;4.60;;
151;SDS011;68;48.792;9.164;2023-07-22T14:26:15;19.80;;;4.60;;
151;SDS011;68;48.792;9.164;2023-07-22T14:28:45;21.87;;;4.80;;
151;SDS011;68;48.792;9.164;2023-07-22T14:31:11;19.83;;;4.70;;
151;SDS011;68;48.792;9.164;2023-07-22T14:33:38;20.60;;;4.80;;
151;SDS011;68;48.792;9.164;2023-07-22T14:36:05;19.17;;;4.40;;
151;SDS011;68;48.792;9.164;2023-07-22T14:38:32;20.80;;;5.07;;
151;SDS011;68;48.792;9.164;2023-07-22T14:40:58;19.53;;;4.50;;
151;SDS011;68;48.792;9.164;2023-07-22T14:43:25;21.10;;;4.30;;
151;SDS011;68;48.792;9.164;2023-07-22T14:45:53;19.50;;;4.57;;
151;SDS011;68;48.792;9.164;2023-07-22T14:48:20;19.43;;;4.70;;
151;SDS011;68;48.792;9.164;2023-07-22T14:50:47;21.70;;;5.63;;
151;SDS011;68;48.792;9.164;2023-07-22T14:53:14;22.50;;;5.07;;
151;SDS011;68;48.792;9.164;2023-07-22T14:55:41;24.00;;;5.13;;
151;SDS011;68;48.792;9.164;2023-07-22T14:58:07;35.33;;;6.47;;
151;SDS011;68;48.792;9.164;2023-07-22T15:00:34;20.90;;;5.30;;
151;SDS011;68;48.792;9.164;2023-07-22T15:03:03;20.73;;;5.57;;
151;SDS011;68;48.792;9.164;2023-07-22T15:05:29;20.30;;;5.00;;
151;SDS011;68;48.792;9.164;2023-07-22T15:07:56;20.73;;;4.60;;
151;SDS011;68;48.792;9.164;2023-07-22T15:10:23;20.63;;;5.20;;
151;SDS011;68;48.792;9.164;2023-07-22T15:12:50;21.83;;;5.33;;
151;SDS011;68;48.792;9.164;2023-07-22T15:15:17;26.20;;;5.20;;
151;SDS011;68;48.792;9.164;2023-07-22T15:17:44;21.10;;;5.10;;
151;SDS011;68;48.792;9.164;2023-07-22T15:20:12;20.40;;;5.33;;
151;SDS011;68;48.792;9.164;2023-07-22T15:22:39;20.93;;;5.00;;
151;SDS011;68;48.792;9.164;2023-07-22T15:25:06;22.53;;;5.30;;
151;SDS011;68;48.792;9.164;2023-07-22T15:27:33;20.20;;;5.27;;
151;SDS011;68;48.792;9.164;2023-07-22T15:30:00;22.63;;;5.60;;
151;SDS011;68;48.792;9.164;2023-07-22T15:32:26;24.20;;;6.05;;
151;SDS011;68;48.792;9.164;2023-07-22T15:34:54;21.90;;;5.40;;
151;SDS011;68;48.792;9.164;2023-07-22T15:37:22;20.40;;;4.97;;
151;SDS011;68;48.792;9.164;2023-07-22T15:39:49;21.33;;;5.33;;
151;SDS011;68;48.792;9.164;2023-07-22T15:42:16;21.60;;;5.30;;